createdAt,value
2019-05-02T00:03:27.432Z,5.95
2019-05-02T00:08:34.412Z,4.40
2019-05-02T00:13:40.473Z,6.50
2019-05-02T00:18:46.295Z,5.25
2019-05-02T00:23:51.932Z,5.60
2019-05-02T00:34:15.253Z,2.83
2019-05-02T00:39:20.893Z,3.72
2019-05-02T00:44:27.303Z,3.55
2019-05-02T00:49:35.562Z,2.98
2019-05-02T00:54:41.934Z,3.47
2019-05-02T00:59:47.631Z,4.53
2019-05-02T01:04:54.271Z,4.25
2019-05-02T01:10:00.252Z,4.20
2019-05-02T01:15:08.432Z,4.53
2019-05-02T01:20:14.573Z,3.25
2019-05-02T01:25:20.213Z,3.98
2019-05-02T01:30:42.351Z,3.67
2019-05-02T01:35:53.694Z,4.72
2019-05-02T01:40:59.833Z,3.95
2019-05-02T01:46:05.982Z,3.62
2019-05-02T01:51:12.563Z,4.22
2019-05-02T01:56:18.552Z,4.03
2019-05-02T02:01:24.193Z,3.12
2019-05-02T02:06:30.234Z,3.17
2019-05-02T02:11:36.223Z,3.98
2019-05-02T02:16:41.932Z,3.72
2019-05-02T02:22:15.523Z,2.87
2019-05-02T02:27:24.638Z,3.77
2019-05-02T02:32:29.312Z,2.55
2019-05-02T02:37:35.985Z,3.02
2019-05-02T02:42:42.175Z,2.77
2019-05-02T02:47:52.945Z,2.62
2019-05-02T02:52:56.033Z,4.08
2019-05-02T02:58:04.869Z,3.37
2019-05-02T03:03:10.254Z,3.02
2019-05-02T03:08:16.785Z,2.40
2019-05-02T03:13:52.756Z,3.35
2019-05-02T03:18:52.474Z,2.42
2019-05-02T03:24:03.448Z,3.33
2019-05-02T03:29:06.544Z,3.50
2019-05-02T03:34:12.256Z,3.20
2019-05-02T03:39:18.583Z,3.25
2019-05-02T03:44:26.276Z,3.65
2019-05-02T03:49:33.224Z,4.10
2019-05-02T03:54:48.393Z,2.90
2019-05-02T03:59:47.866Z,2.35
2019-05-02T04:05:00.016Z,3.30
2019-05-02T04:10:02.405Z,2.98
2019-05-02T04:15:09.735Z,2.90
2019-05-02T04:20:15.926Z,2.67
2019-05-02T04:25:27.886Z,2.70
2019-05-02T04:30:30.314Z,2.30
2019-05-02T04:35:36.544Z,2.35
2019-05-02T04:40:46.443Z,2.60
2019-05-02T04:45:56.171Z,3.87
2019-05-02T04:51:08.692Z,2.27
2019-05-02T04:56:10.398Z,2.85
2019-05-02T05:01:14.875Z,2.30
2019-05-02T05:06:20.943Z,3.55
2019-05-02T05:11:27.452Z,2.47
2019-05-02T05:16:33.773Z,2.35
2019-05-02T05:21:39.873Z,2.20
2019-05-02T05:26:48.573Z,2.52
2019-05-02T05:31:55.086Z,2.62
2019-05-02T05:37:03.542Z,4.12
2019-05-02T05:42:10.777Z,13.65
2019-05-02T05:47:21.149Z,7.83
2019-05-02T05:52:27.052Z,9.93
2019-05-02T05:57:32.553Z,2.37
2019-05-02T06:02:52.838Z,5.08
2019-05-02T06:07:47.427Z,9.43
2019-05-02T06:12:53.603Z,3.27
2019-05-02T06:18:00.054Z,12.53
2019-05-02T06:23:07.573Z,5.78
2019-05-02T06:28:13.322Z,5.70
2019-05-02T06:33:18.584Z,5.87
2019-05-02T06:38:24.884Z,6.45
2019-05-02T06:43:30.615Z,5.28
2019-05-02T06:48:36.693Z,7.67
2019-05-02T06:53:46.966Z,11.20
2019-05-02T06:58:50.677Z,10.40
2019-05-02T07:03:56.992Z,4.65
2019-05-02T07:09:03.485Z,7.28
2019-05-02T07:14:13.506Z,7.83
2019-05-02T07:19:36.152Z,6.40
2019-05-02T07:24:42.473Z,7.10
2019-05-02T07:29:52.243Z,4.75
2019-05-02T07:34:56.223Z,5.67
2019-05-02T07:40:02.343Z,4.85
2019-05-02T07:45:09.407Z,6.58
2019-05-02T07:50:16.623Z,5.33
2019-05-02T07:55:22.742Z,6.55
2019-05-02T08:00:32.040Z,4.37
2019-05-02T08:05:36.722Z,8.75
2019-05-02T08:10:43.013Z,9.48
2019-05-02T08:15:50.794Z,7.75
2019-05-02T08:20:57.418Z,6.70
2019-05-02T08:26:03.676Z,7.60
2019-05-02T08:31:13.672Z,9.00
2019-05-02T08:36:17.295Z,6.87
2019-05-02T08:41:23.642Z,6.87
2019-05-02T08:46:29.933Z,6.72
2019-05-02T08:51:35.733Z,6.72
2019-05-02T08:56:42.153Z,5.40
2019-05-02T09:01:49.413Z,6.50
2019-05-02T09:06:58.912Z,8.70
2019-05-02T09:12:12.221Z,7.53
2019-05-02T09:17:16.426Z,8.20
2019-05-02T09:22:22.175Z,10.13
2019-05-02T09:27:28.003Z,7.05
2019-05-02T09:32:37.065Z,9.53
2019-05-02T09:37:42.114Z,5.17
2019-05-02T09:42:55.948Z,6.87
2019-05-02T09:48:04.554Z,10.48
2019-05-02T09:53:03.794Z,6.60
2019-05-02T09:58:10.376Z,7.92
2019-05-02T10:03:18.733Z,8.53
2019-05-02T10:08:25.195Z,12.00
2019-05-02T10:13:31.893Z,8.73
2019-05-02T10:18:39.813Z,14.00
2019-05-02T10:23:45.535Z,11.05
2019-05-02T10:28:53.305Z,9.00
2019-05-02T10:34:02.218Z,8.95
2019-05-02T10:39:11.852Z,7.62
2019-05-02T10:44:17.373Z,10.78
2019-05-02T10:49:31.931Z,9.03
2019-05-02T10:54:37.643Z,9.23
2019-05-02T10:59:43.373Z,7.97
2019-05-02T11:04:53.563Z,8.78
2019-05-02T11:10:05.045Z,9.28
2019-05-02T11:15:29.923Z,10.35
2019-05-02T11:20:36.601Z,8.30
2019-05-02T11:25:42.458Z,16.67
2019-05-02T11:30:48.281Z,11.65
2019-05-02T11:35:54.893Z,10.18
2019-05-02T11:41:02.756Z,10.28
2019-05-02T11:46:09.194Z,12.18
2019-05-02T11:51:16.504Z,8.18
2019-05-02T11:56:22.662Z,5.67
2019-05-02T12:01:38.927Z,7.30
2019-05-02T12:06:37.492Z,7.28
2019-05-02T12:11:47.521Z,4.87
2019-05-02T12:16:52.714Z,6.40
2019-05-02T12:21:59.284Z,5.75
2019-05-02T12:27:05.943Z,4.62
2019-05-02T12:32:15.489Z,5.80
2019-05-02T12:37:21.940Z,10.68
2019-05-02T12:42:32.151Z,9.55
2019-05-02T12:47:38.112Z,13.38
2019-05-02T12:52:43.922Z,11.78
2019-05-02T12:57:52.344Z,13.72
2019-05-02T13:03:09.322Z,6.20
2019-05-02T13:08:15.432Z,8.28
2019-05-02T13:13:21.813Z,6.33
2019-05-02T13:18:34.614Z,10.28
2019-05-02T13:24:07.231Z,10.20
2019-05-02T13:29:11.839Z,14.50
2019-05-02T13:34:25.534Z,8.33
2019-05-02T13:39:41.849Z,10.93
2019-05-02T13:44:58.372Z,12.13
2019-05-02T13:50:05.013Z,9.33
2019-05-02T13:55:12.473Z,10.32
2019-05-02T14:00:25.874Z,8.15
2019-05-02T14:05:31.844Z,9.43
2019-05-02T14:10:41.096Z,9.40
2019-05-02T14:15:46.823Z,13.10
2019-05-02T14:20:53.332Z,6.70
2019-05-02T14:25:59.493Z,9.90
2019-05-02T14:31:05.411Z,9.35
2019-05-02T14:36:11.724Z,5.33
2019-05-02T14:41:30.113Z,11.75
2019-05-02T14:46:37.530Z,4.50
2019-05-02T14:51:41.777Z,6.67
2019-05-02T14:57:17.273Z,4.67
2019-05-02T15:02:54.092Z,4.55
2019-05-02T15:08:02.675Z,7.62
2019-05-02T15:13:07.045Z,7.58
2019-05-02T15:18:17.261Z,5.97
2019-05-02T15:23:22.634Z,3.72
2019-05-02T15:28:30.290Z,4.72
2019-05-02T15:33:42.130Z,4.53
2019-05-02T15:38:48.043Z,3.42
2019-05-02T15:43:53.603Z,6.10
2019-05-02T15:49:01.775Z,7.17
2019-05-02T15:54:08.936Z,7.55
2019-05-02T15:59:16.721Z,4.55
2019-05-02T16:04:25.806Z,5.35
2019-05-02T16:09:32.978Z,6.58
2019-05-02T16:14:39.222Z,3.90
2019-05-02T16:19:52.357Z,3.27
2019-05-02T16:24:58.043Z,4.30
2019-05-02T16:30:07.517Z,4.50
2019-05-02T16:35:17.015Z,5.03
2019-05-02T16:40:22.146Z,5.17
2019-05-02T16:45:28.022Z,9.75
2019-05-02T16:50:36.946Z,4.60
2019-05-02T16:55:44.053Z,6.40
2019-05-02T17:00:52.650Z,5.42
2019-05-02T17:05:58.822Z,7.40
2019-05-02T17:11:15.446Z,5.95
2019-05-02T17:16:22.082Z,7.15
2019-05-02T17:21:33.736Z,7.12
2019-05-02T17:26:35.652Z,5.33
2019-05-02T17:31:42.701Z,3.20
2019-05-02T17:36:48.763Z,13.08
2019-05-02T17:41:55.502Z,7.83
2019-05-02T17:47:02.732Z,3.15
2019-05-02T17:52:26.930Z,7.65
2019-05-02T17:57:33.505Z,7.25
2019-05-02T18:02:42.266Z,8.63
2019-05-02T18:07:48.342Z,8.35
2019-05-02T18:12:58.794Z,6.17
2019-05-02T18:18:06.487Z,8.08
2019-05-02T18:23:12.245Z,5.60
2019-05-02T18:28:25.903Z,7.83
2019-05-02T18:33:30.794Z,8.03
2019-05-02T18:38:37.624Z,9.95
2019-05-02T18:43:45.185Z,7.90
2019-05-02T18:48:51.923Z,8.90
2019-05-02T18:54:03.071Z,10.25
2019-05-02T18:59:05.592Z,10.50
2019-05-02T19:04:13.240Z,11.12
2019-05-02T19:09:25.009Z,6.33
2019-05-02T19:14:28.294Z,5.90
2019-05-02T19:19:36.816Z,7.15
2019-05-02T19:24:42.887Z,5.40
2019-05-02T19:29:49.530Z,7.28
2019-05-02T19:35:03.257Z,7.40
2019-05-02T19:40:06.884Z,7.78
2019-05-02T19:46:38.758Z,7.33
2019-05-02T19:51:56.298Z,6.62
2019-05-02T20:04:14.915Z,6.83
2019-05-02T20:10:18.191Z,10.98
2019-05-02T20:15:30.314Z,3.75
2019-05-02T20:20:52.090Z,8.15
2019-05-02T20:26:00.214Z,7.03
2019-05-02T20:31:08.314Z,5.00
2019-05-02T20:36:16.575Z,5.97
2019-05-02T20:41:24.435Z,5.45
2019-05-02T20:46:32.956Z,6.90
2019-05-02T20:51:42.382Z,4.70
2019-05-02T20:56:51.821Z,6.35
2019-05-02T21:01:58.974Z,6.53
2019-05-02T21:07:34.853Z,6.00
2019-05-02T21:12:42.934Z,4.67
2019-05-02T21:17:50.914Z,6.37
2019-05-02T21:22:58.715Z,4.47
2019-05-02T21:28:07.096Z,3.90
2019-05-02T21:33:36.536Z,3.87
2019-05-02T21:38:43.996Z,3.40
2019-05-02T21:43:51.836Z,3.20
2019-05-02T21:49:00.196Z,5.72
2019-05-02T21:54:32.676Z,3.98
2019-05-02T21:59:42.097Z,3.65
2019-05-02T22:04:50.074Z,4.03
2019-05-02T22:09:58.078Z,3.60
2019-05-02T22:15:06.136Z,3.62
2019-05-02T22:20:14.277Z,4.03
2019-05-02T22:25:22.175Z,4.33
2019-05-02T22:30:30.582Z,5.05
2019-05-02T22:35:43.163Z,4.28
2019-05-02T22:40:51.421Z,3.22
2019-05-02T22:46:07.233Z,4.67
2019-05-02T22:51:25.216Z,3.77
2019-05-02T22:56:59.254Z,2.75
2019-05-02T23:03:41.759Z,4.33
2019-05-02T23:08:55.617Z,3.58
2019-05-02T23:14:12.274Z,3.58
2019-05-02T23:19:27.756Z,2.98
2019-05-02T23:25:22.628Z,2.62
2019-05-02T23:30:38.195Z,2.92
2019-05-02T23:36:32.837Z,3.10
2019-05-02T23:42:24.799Z,2.92
2019-05-02T23:47:56.517Z,2.80
2019-05-02T23:53:31.550Z,3.55
2019-05-02T23:58:49.175Z,2.50
